createdAt,value
2023-01-07T00:02:52.810Z,100793.20
2023-01-07T00:05:21.113Z,100792.85
2023-01-07T00:07:49.229Z,100787.65
2023-01-07T00:10:19.495Z,100782.80
2023-01-07T00:13:00.100Z,100786.92
2023-01-07T00:15:30.627Z,100784.38
2023-01-07T00:18:05.577Z,100784.00
2023-01-07T00:20:33.825Z,100786.04
2023-01-07T00:23:02.138Z,100782.39
2023-01-07T00:25:38.467Z,100779.92
2023-01-07T00:28:09.071Z,100785.27
2023-01-07T00:30:37.419Z,100782.29
2023-01-07T00:33:09.751Z,100777.39
2023-01-07T00:35:38.166Z,100782.30
2023-01-07T00:38:08.956Z,100779.35
2023-01-07T00:40:38.033Z,100777.19
2023-01-07T00:43:08.725Z,100776.83
2023-01-07T00:45:43.174Z,100778.64
2023-01-07T00:48:13.636Z,100784.20
2023-01-07T00:50:43.082Z,100793.09
2023-01-07T00:53:12.410Z,100794.05
2023-01-07T00:55:40.630Z,100792.05
2023-01-07T00:58:14.531Z,100787.75
2023-01-07T01:00:42.958Z,100786.38
2023-01-07T01:03:12.090Z,100787.33
2023-01-07T01:05:40.744Z,100786.06
2023-01-07T01:08:09.493Z,100784.21
2023-01-07T01:10:38.515Z,100783.41
2023-01-07T01:13:06.772Z,100784.73
2023-01-07T01:15:34.982Z,100788.05
2023-01-07T01:18:03.272Z,100792.61
2023-01-07T01:20:31.480Z,100793.55
2023-01-07T01:22:59.510Z,100788.35
2023-01-07T01:25:27.556Z,100791.39
2023-01-07T01:27:55.586Z,100784.79
2023-01-07T01:30:24.286Z,100791.41
2023-01-07T01:32:53.221Z,100789.90
2023-01-07T01:35:21.495Z,100792.59
2023-01-07T01:37:51.945Z,100794.11
2023-01-07T01:40:20.156Z,100780.98
2023-01-07T01:42:49.647Z,100774.55
2023-01-07T01:45:18.616Z,100773.61
2023-01-07T01:47:49.067Z,100774.88
2023-01-07T01:50:25.188Z,100780.73
2023-01-07T01:53:01.178Z,100782.29
2023-01-07T01:55:35.740Z,100783.73
2023-01-07T01:58:09.936Z,100784.77
2023-01-07T02:00:38.972Z,100784.98
2023-01-07T02:03:11.945Z,100780.14
2023-01-07T02:05:42.242Z,100770.39
2023-01-07T02:08:10.589Z,100776.14
2023-01-07T02:10:39.846Z,100789.35
2023-01-07T02:13:36.702Z,100790.55
2023-01-07T02:16:19.741Z,100785.96
2023-01-07T02:19:37.237Z,100780.49
2023-01-07T02:22:31.538Z,100775.95
2023-01-07T02:25:22.013Z,100771.02
2023-01-07T02:27:56.184Z,100770.67
2023-01-07T02:31:09.634Z,100771.22
2023-01-07T02:34:09.962Z,100771.54
2023-01-07T02:37:01.020Z,100768.34
2023-01-07T02:39:44.731Z,100763.45
2023-01-07T02:42:58.093Z,100758.36
2023-01-07T02:45:32.678Z,100756.61
2023-01-07T02:48:12.105Z,100753.80
2023-01-07T02:50:41.228Z,100748.56
2023-01-07T02:53:15.584Z,100746.98
2023-01-07T02:56:05.121Z,100746.80
2023-01-07T02:58:56.432Z,100742.63
2023-01-07T03:01:58.716Z,100739.64
2023-01-07T03:04:42.233Z,100733.52
2023-01-07T03:07:35.960Z,100723.23
2023-01-07T03:10:28.273Z,100710.54
2023-01-07T03:13:06.336Z,100704.65
2023-01-07T03:15:54.075Z,100704.13
2023-01-07T03:18:44.698Z,100712.27
2023-01-07T03:21:20.307Z,100721.29
2023-01-07T03:23:57.027Z,100729.50
2023-01-07T03:26:39.604Z,100728.89
2023-01-07T03:29:20.179Z,100729.00
2023-01-07T03:32:03.571Z,100725.11
2023-01-07T03:34:34.542Z,100716.84
2023-01-07T03:37:09.316Z,100716.73
2023-01-07T03:39:40.536Z,100727.25
2023-01-07T03:42:31.576Z,100727.17
2023-01-07T03:45:03.378Z,100719.95
2023-01-07T03:47:40.995Z,100713.78
2023-01-07T03:50:12.496Z,100717.92
2023-01-07T03:52:45.115Z,100724.41
2023-01-07T03:55:13.752Z,100724.87
2023-01-07T03:57:42.872Z,100724.36
2023-01-07T04:00:12.354Z,100721.77
2023-01-07T04:02:45.477Z,100725.92
2023-01-07T04:05:22.188Z,100733.92
2023-01-07T04:07:50.443Z,100733.89
2023-01-07T04:10:21.904Z,100731.41
2023-01-07T04:12:50.074Z,100728.15
2023-01-07T04:15:18.399Z,100732.41
2023-01-07T04:17:46.520Z,100732.60
2023-01-07T04:20:14.946Z,100729.38
2023-01-07T04:22:44.063Z,100730.45
2023-01-07T04:25:12.262Z,100731.95
2023-01-07T04:27:40.526Z,100733.60
2023-01-07T04:30:09.340Z,100732.98
2023-01-07T04:32:37.365Z,100730.42
2023-01-07T04:35:05.550Z,100730.21
2023-01-07T04:37:34.599Z,100732.63
2023-01-07T04:40:03.616Z,100733.48
2023-01-07T04:42:35.190Z,100732.13
2023-01-07T04:45:04.252Z,100732.09
2023-01-07T04:47:32.934Z,100731.27
2023-01-07T04:50:01.165Z,100732.77
2023-01-07T04:52:32.215Z,100731.25
2023-01-07T04:55:00.535Z,100730.15
2023-01-07T04:57:29.086Z,100734.77
2023-01-07T04:59:57.452Z,100733.95
2023-01-07T05:02:25.664Z,100739.27
2023-01-07T05:04:54.142Z,100745.64
2023-01-07T05:07:22.723Z,100742.09
2023-01-07T05:09:50.949Z,100740.80
2023-01-07T05:12:24.549Z,100738.84
2023-01-07T05:14:55.299Z,100746.08
2023-01-07T05:17:30.320Z,100747.08
2023-01-07T05:20:10.182Z,100746.42
2023-01-07T05:22:39.378Z,100739.59
2023-01-07T05:25:16.205Z,100741.79
2023-01-07T05:27:47.619Z,100745.88
2023-01-07T05:30:15.993Z,100745.65
2023-01-07T05:32:45.874Z,100745.73
2023-01-07T05:35:14.958Z,100748.86
2023-01-07T05:37:45.779Z,100749.06
2023-01-07T05:40:14.762Z,100745.48
2023-01-07T05:42:43.861Z,100742.45
2023-01-07T05:45:12.751Z,100744.41
2023-01-07T05:47:43.218Z,100748.39
2023-01-07T05:50:11.305Z,100751.71
2023-01-07T05:52:39.373Z,100749.16
2023-01-07T05:55:08.656Z,100746.76
2023-01-07T05:57:36.777Z,100748.56
2023-01-07T06:00:07.898Z,100751.09
2023-01-07T06:02:42.660Z,100754.16
2023-01-07T06:05:10.960Z,100752.77
2023-01-07T06:07:40.416Z,100755.39
2023-01-07T06:10:11.831Z,100754.07
2023-01-07T06:12:42.384Z,100751.09
2023-01-07T06:15:11.012Z,100749.38
2023-01-07T06:17:39.224Z,100751.48
2023-01-07T06:20:09.361Z,100751.70
2023-01-07T06:22:37.524Z,100754.66
2023-01-07T06:25:06.008Z,100751.55
2023-01-07T06:27:34.816Z,100755.17
2023-01-07T06:30:06.755Z,100755.27
2023-01-07T06:32:42.473Z,100755.27
2023-01-07T06:35:13.574Z,100756.62
2023-01-07T06:37:41.778Z,100754.42
2023-01-07T06:40:12.277Z,100755.42
2023-01-07T06:43:06.544Z,100758.79
2023-01-07T06:45:46.592Z,100763.44
2023-01-07T06:48:17.016Z,100764.33
2023-01-07T06:50:46.389Z,100764.54
2023-01-07T06:53:14.631Z,100766.68
2023-01-07T06:55:51.862Z,100762.33
2023-01-07T06:58:22.631Z,100758.32
2023-01-07T07:00:51.326Z,100760.05
2023-01-07T07:03:19.696Z,100758.80
2023-01-07T07:05:50.267Z,100759.83
2023-01-07T07:08:18.513Z,100760.48
2023-01-07T07:10:50.135Z,100757.83
2023-01-07T07:13:18.523Z,100761.54
2023-01-07T07:15:50.152Z,100760.58
2023-01-07T07:18:21.918Z,100760.86
2023-01-07T07:20:50.099Z,100759.91
2023-01-07T07:23:18.365Z,100761.71
2023-01-07T07:25:48.349Z,100760.98
2023-01-07T07:28:18.862Z,100762.28
2023-01-07T07:30:51.015Z,100768.16
2023-01-07T07:33:19.810Z,100772.88
2023-01-07T07:35:52.833Z,100770.84
2023-01-07T07:38:23.949Z,100770.90
2023-01-07T07:40:56.824Z,100772.00
2023-01-07T07:43:29.825Z,100771.68
2023-01-07T07:46:06.723Z,100770.73
2023-01-07T07:48:39.251Z,100771.35
2023-01-07T07:51:08.791Z,100770.99
2023-01-07T07:53:40.277Z,100764.65
2023-01-07T07:56:15.261Z,100758.87
2023-01-07T07:58:47.172Z,100761.52
2023-01-07T08:01:19.123Z,100762.56
2023-01-07T08:03:50.557Z,100758.31
2023-01-07T08:06:26.266Z,100762.50
2023-01-07T08:08:56.797Z,100761.32
2023-01-07T08:11:24.901Z,100759.54
2023-01-07T08:13:55.443Z,100761.20
2023-01-07T08:16:34.485Z,100765.60
2023-01-07T08:19:05.024Z,100764.86
2023-01-07T08:21:35.582Z,100763.81
2023-01-07T08:24:04.177Z,100762.74
2023-01-07T08:26:32.887Z,100764.21
2023-01-07T08:29:00.995Z,100768.55
2023-01-07T08:31:29.392Z,100769.61
2023-01-07T08:33:57.759Z,100768.48
2023-01-07T08:36:26.073Z,100772.67
2023-01-07T08:38:55.382Z,100774.36
2023-01-07T08:41:25.953Z,100776.15
2023-01-07T08:43:54.481Z,100777.39
2023-01-07T08:47:21.417Z,100776.17
2023-01-07T08:49:28.948Z,100778.33
2023-01-07T08:52:03.396Z,100780.27
2023-01-07T08:54:42.925Z,100777.34
2023-01-07T08:57:20.752Z,100778.59
2023-01-07T08:59:50.764Z,100782.41
2023-01-07T09:02:21.896Z,100786.04
2023-01-07T09:04:50.067Z,100787.87
2023-01-07T09:07:18.096Z,100788.70
2023-01-07T09:09:45.893Z,100787.61
2023-01-07T09:12:13.820Z,100787.38
2023-01-07T09:14:44.266Z,100785.63
2023-01-07T09:17:12.324Z,100777.92
2023-01-07T09:19:40.401Z,100774.58
2023-01-07T09:22:08.415Z,100766.64
2023-01-07T09:24:36.421Z,100761.04
2023-01-07T09:27:04.367Z,100760.38
2023-01-07T09:29:32.451Z,100756.83
2023-01-07T09:32:00.315Z,100756.89
2023-01-07T09:34:28.284Z,100753.14
2023-01-07T09:36:56.177Z,100754.05
2023-01-07T09:39:24.116Z,100752.92
2023-01-07T09:42:07.265Z,100751.00
2023-01-07T09:44:41.268Z,100742.48
2023-01-07T09:47:11.269Z,100736.64
2023-01-07T09:49:40.939Z,100731.65
2023-01-07T09:52:16.024Z,100728.41
2023-01-07T09:54:48.452Z,100723.12
2023-01-07T09:57:17.884Z,100716.95
2023-01-07T09:59:46.338Z,100716.30
2023-01-07T10:02:25.135Z,100712.73
2023-01-07T10:05:24.725Z,100709.52
2023-01-07T10:08:29.436Z,100709.71
2023-01-07T10:11:18.942Z,100710.56
2023-01-07T10:14:18.426Z,100708.70
2023-01-07T10:17:05.896Z,100705.33
2023-01-07T10:19:47.988Z,100706.55
2023-01-07T10:22:43.901Z,100709.08
2023-01-07T10:25:26.531Z,100707.34
2023-01-07T10:28:01.109Z,100702.91
2023-01-07T10:30:49.814Z,100702.45
2023-01-07T10:33:18.038Z,100704.17
2023-01-07T10:35:52.976Z,100703.94
2023-01-07T10:38:25.082Z,100700.00
2023-01-07T10:41:02.234Z,100699.72
2023-01-07T10:43:36.748Z,100694.22
2023-01-07T10:46:48.226Z,100690.10
2023-01-07T10:50:13.643Z,100694.08
2023-01-07T10:52:55.741Z,100694.11
2023-01-07T10:55:32.627Z,100688.30
2023-01-07T10:58:01.588Z,100683.39
2023-01-07T11:00:33.112Z,100678.58
2023-01-07T11:03:03.515Z,100678.16
2023-01-07T11:05:38.637Z,100678.38
2023-01-07T11:08:33.983Z,100676.02
2023-01-07T11:11:06.499Z,100668.46
2023-01-07T11:13:37.974Z,100667.77
2023-01-07T11:16:12.199Z,100666.13
2023-01-07T11:19:01.878Z,100663.64
2023-01-07T11:21:48.652Z,100660.75
2023-01-07T11:24:35.626Z,100656.63
2023-01-07T11:27:14.839Z,100651.43
2023-01-07T11:29:56.685Z,100652.43
2023-01-07T11:32:31.355Z,100647.46
2023-01-07T11:35:07.972Z,100645.09
2023-01-07T11:37:42.208Z,100642.52
2023-01-07T11:40:13.366Z,100643.02
2023-01-07T11:42:48.423Z,100644.63
2023-01-07T11:45:27.152Z,100643.23
2023-01-07T11:47:59.551Z,100636.36
2023-01-07T11:50:35.953Z,100636.91
2023-01-07T11:53:21.840Z,100632.77
2023-01-07T11:56:11.186Z,100629.97
2023-01-07T11:58:44.813Z,100628.21
2023-01-07T12:01:15.116Z,100624.11
2023-01-07T12:03:52.622Z,100622.73
2023-01-07T12:06:35.301Z,100619.90
2023-01-07T12:09:24.954Z,100615.64
2023-01-07T12:11:56.891Z,100616.30
2023-01-07T12:14:39.972Z,100617.45
2023-01-07T12:17:20.535Z,100616.80
2023-01-07T12:19:55.083Z,100611.46
2023-01-07T12:22:34.522Z,100606.84
2023-01-07T12:25:34.608Z,100607.20
2023-01-07T12:28:33.334Z,100605.22
2023-01-07T12:31:17.150Z,100604.58
2023-01-07T12:33:54.075Z,100606.15
2023-01-07T12:36:54.292Z,100604.77
2023-01-07T12:39:33.417Z,100603.17
2023-01-07T12:42:09.867Z,100600.49
2023-01-07T12:44:45.127Z,100600.76
2023-01-07T12:47:36.726Z,100598.33
2023-01-07T12:50:10.842Z,100593.98
2023-01-07T12:53:00.584Z,100597.66
2023-01-07T12:55:31.784Z,100600.59
2023-01-07T12:58:15.224Z,100600.61
2023-01-07T13:01:11.945Z,100599.05
2023-01-07T13:03:58.402Z,100594.94
2023-01-07T13:06:51.142Z,100594.57
2023-01-07T13:09:39.126Z,100596.64
2023-01-07T13:12:45.336Z,100599.89
2023-01-07T13:15:22.975Z,100596.90
2023-01-07T13:17:54.090Z,100595.38
2023-01-07T13:20:54.274Z,100592.96
2023-01-07T13:23:45.431Z,100595.06
2023-01-07T13:26:35.406Z,100596.35
2023-01-07T13:29:28.825Z,100593.41
2023-01-07T13:32:28.001Z,100589.18
2023-01-07T13:35:25.398Z,100588.93
2023-01-07T13:38:19.071Z,100590.27
2023-01-07T13:41:11.552Z,100587.05
2023-01-07T13:44:15.270Z,100589.98
2023-01-07T13:46:46.748Z,100590.70
2023-01-07T13:49:34.482Z,100591.09
2023-01-07T13:52:22.864Z,100592.66
2023-01-07T13:54:51.637Z,100590.16
2023-01-07T13:57:31.324Z,100588.78
2023-01-07T14:00:01.819Z,100590.62
2023-01-07T14:02:58.279Z,100587.66
2023-01-07T14:05:29.451Z,100585.23
2023-01-07T14:08:01.307Z,100584.71
2023-01-07T14:10:33.832Z,100587.50
2023-01-07T14:13:33.783Z,100587.62
2023-01-07T14:16:23.711Z,100590.08
2023-01-07T14:19:27.203Z,100593.02
2023-01-07T14:21:55.327Z,100587.80
2023-01-07T14:24:37.835Z,100583.88
2023-01-07T14:27:37.312Z,100582.70
2023-01-07T14:30:27.290Z,100578.98
2023-01-07T14:33:07.374Z,100574.27
2023-01-07T14:35:41.595Z,100574.39
2023-01-07T14:38:31.843Z,100573.40
2023-01-07T14:41:04.386Z,100572.30
2023-01-07T14:43:47.478Z,100568.50
2023-01-07T14:46:24.502Z,100570.91
2023-01-07T14:49:30.239Z,100568.59
2023-01-07T14:52:27.019Z,100569.69
2023-01-07T14:55:01.202Z,100565.45
2023-01-07T14:57:38.767Z,100563.33
2023-01-07T15:00:54.934Z,100565.29
2023-01-07T15:03:45.772Z,100565.23
2023-01-07T15:06:27.823Z,100559.65
2023-01-07T15:09:23.824Z,100559.16
2023-01-07T15:12:14.117Z,100563.09
2023-01-07T15:15:03.794Z,100561.88
2023-01-07T15:17:32.466Z,100562.44
2023-01-07T15:20:05.759Z,100560.28
2023-01-07T15:23:11.157Z,100559.85
2023-01-07T15:26:03.265Z,100562.82
2023-01-07T15:28:47.991Z,100560.48
2023-01-07T15:31:42.899Z,100560.30
2023-01-07T15:34:17.222Z,100559.08
2023-01-07T15:36:48.859Z,100565.21
2023-01-07T15:39:27.674Z,100566.08
2023-01-07T15:41:57.587Z,100563.91
2023-01-07T15:44:32.835Z,100564.69
2023-01-07T15:47:01.240Z,100562.91
2023-01-07T15:49:29.923Z,100560.41
2023-01-07T15:52:01.873Z,100561.64
2023-01-07T15:54:31.888Z,100560.59
2023-01-07T15:57:04.751Z,100563.17
2023-01-07T15:59:36.673Z,100565.23
2023-01-07T16:02:17.176Z,100566.73
2023-01-07T16:04:48.771Z,100563.91
2023-01-07T16:07:27.695Z,100563.23
2023-01-07T16:09:57.597Z,100559.26
2023-01-07T16:12:37.653Z,100556.20
2023-01-07T16:15:30.455Z,100556.21
2023-01-07T16:18:21.990Z,100555.67
2023-01-07T16:20:58.309Z,100554.89
2023-01-07T16:23:32.965Z,100553.79
2023-01-07T16:26:06.199Z,100552.66
2023-01-07T16:28:41.054Z,100553.97
2023-01-07T16:31:12.649Z,100550.77
2023-01-07T16:33:43.019Z,100551.48
2023-01-07T16:36:17.794Z,100549.10
2023-01-07T16:38:50.425Z,100544.28
2023-01-07T16:41:24.554Z,100540.63
2023-01-07T16:43:57.677Z,100538.38
2023-01-07T16:46:30.795Z,100536.64
2023-01-07T16:49:11.096Z,100535.01
2023-01-07T16:51:44.454Z,100535.47
2023-01-07T16:54:28.892Z,100532.53
2023-01-07T16:57:06.220Z,100531.80
2023-01-07T16:59:38.245Z,100524.20
2023-01-07T17:02:21.448Z,100528.24
2023-01-07T17:04:49.722Z,100531.70
2023-01-07T17:07:26.418Z,100530.73
2023-01-07T17:09:58.134Z,100529.63
2023-01-07T17:12:40.589Z,100525.70
2023-01-07T17:15:31.815Z,100525.39
2023-01-07T17:18:12.276Z,100526.26
2023-01-07T17:20:47.109Z,100522.54
2023-01-07T17:23:27.506Z,100518.46
2023-01-07T17:25:58.828Z,100515.13
2023-01-07T17:28:34.429Z,100517.13
2023-01-07T17:31:03.518Z,100518.65
2023-01-07T17:33:32.041Z,100514.45
2023-01-07T17:36:00.146Z,100515.11
2023-01-07T17:38:29.525Z,100521.70
2023-01-07T17:40:57.813Z,100519.94
2023-01-07T17:43:37.762Z,100518.82
2023-01-07T17:46:13.156Z,100518.68
2023-01-07T17:48:41.434Z,100514.32
2023-01-07T17:51:11.694Z,100515.57
2023-01-07T17:53:46.284Z,100516.30
2023-01-07T17:56:17.199Z,100515.13
2023-01-07T17:58:45.393Z,100516.30
2023-01-07T18:01:22.074Z,100518.05
2023-01-07T18:03:52.363Z,100518.65
2023-01-07T18:06:23.415Z,100518.74
2023-01-07T18:08:52.942Z,100520.06
2023-01-07T18:11:43.678Z,100518.29
2023-01-07T18:14:16.482Z,100520.63
2023-01-07T18:16:44.738Z,100520.45
2023-01-07T18:19:15.164Z,100518.40
2023-01-07T18:21:43.343Z,100517.32
2023-01-07T18:24:22.667Z,100516.19
2023-01-07T18:26:52.019Z,100518.45
2023-01-07T18:29:20.123Z,100515.76
2023-01-07T18:31:48.188Z,100519.14
2023-01-07T18:34:16.373Z,100519.36
2023-01-07T18:36:44.387Z,100515.19
2023-01-07T18:39:20.645Z,100516.63
2023-01-07T18:41:50.393Z,100513.56
2023-01-07T18:44:19.978Z,100509.99
2023-01-07T18:46:48.400Z,100511.90
2023-01-07T18:49:16.959Z,100509.10
2023-01-07T18:51:47.221Z,100505.48
2023-01-07T18:54:17.834Z,100506.98
2023-01-07T18:56:46.020Z,100502.23
2023-01-07T18:59:14.307Z,100501.83
2023-01-07T19:01:42.701Z,100498.52
2023-01-07T19:04:11.326Z,100497.17
2023-01-07T19:06:42.151Z,100498.21
2023-01-07T19:09:10.224Z,100499.24
2023-01-07T19:11:38.624Z,100497.09
2023-01-07T19:14:06.798Z,100497.00
2023-01-07T19:16:35.900Z,100495.39
2023-01-07T19:19:04.733Z,100491.97
2023-01-07T19:21:32.738Z,100486.77
2023-01-07T19:24:08.244Z,100483.32
2023-01-07T19:26:36.248Z,100483.23
2023-01-07T19:29:04.353Z,100484.09
2023-01-07T19:31:32.557Z,100486.27
2023-01-07T19:34:04.076Z,100485.84
2023-01-07T19:36:32.389Z,100480.59
2023-01-07T19:39:00.335Z,100482.31
2023-01-07T19:41:28.864Z,100482.38
2023-01-07T19:44:01.116Z,100478.27
2023-01-07T19:46:37.731Z,100476.48
2023-01-07T19:49:13.664Z,100479.39
2023-01-07T19:51:44.502Z,100479.33
2023-01-07T19:54:16.065Z,100477.95
2023-01-07T19:56:44.378Z,100477.11
2023-01-07T19:59:14.410Z,100476.76
2023-01-07T20:01:43.690Z,100477.21
2023-01-07T20:04:14.197Z,100475.18
2023-01-07T20:06:42.584Z,100481.47
2023-01-07T20:09:24.829Z,100478.62
2023-01-07T20:11:54.266Z,100473.39
2023-01-07T20:14:24.814Z,100471.20
2023-01-07T20:16:57.786Z,100475.49
2023-01-07T20:19:32.476Z,100476.54
2023-01-07T20:22:00.735Z,100477.83
2023-01-07T20:24:29.757Z,100475.21
2023-01-07T20:26:57.747Z,100472.98
2023-01-07T20:29:30.079Z,100475.54
2023-01-07T20:32:00.661Z,100476.80
2023-01-07T20:34:31.245Z,100475.80
2023-01-07T20:36:59.395Z,100475.46
2023-01-07T20:39:27.571Z,100474.46
2023-01-07T20:41:55.853Z,100477.47
2023-01-07T20:44:25.933Z,100478.29
2023-01-07T20:46:56.553Z,100479.89
2023-01-07T20:49:24.796Z,100482.60
2023-01-07T20:51:58.112Z,100482.02
2023-01-07T20:54:33.837Z,100480.92
2023-01-07T20:57:02.730Z,100480.70
2023-01-07T20:59:32.884Z,100482.42
2023-01-07T21:02:04.256Z,100480.06
2023-01-07T21:04:32.681Z,100476.80
2023-01-07T21:07:02.221Z,100477.86
2023-01-07T21:09:33.040Z,100479.84
2023-01-07T21:12:11.004Z,100477.61
2023-01-07T21:14:51.648Z,100477.29
2023-01-07T21:17:39.832Z,100477.59
2023-01-07T21:20:18.733Z,100479.61
2023-01-07T21:22:53.289Z,100480.73
2023-01-07T21:25:40.331Z,100476.90
2023-01-07T21:28:11.507Z,100474.13
2023-01-07T21:30:44.838Z,100468.88
2023-01-07T21:33:17.598Z,100469.08
2023-01-07T21:36:02.622Z,100466.59
2023-01-07T21:38:35.620Z,100461.88
2023-01-07T21:41:32.193Z,100462.83
2023-01-07T21:44:03.929Z,100461.62
2023-01-07T21:47:03.123Z,100459.27
2023-01-07T21:49:36.012Z,100458.33
2023-01-07T21:52:04.303Z,100455.45
2023-01-07T21:54:34.605Z,100452.92
2023-01-07T21:57:02.764Z,100451.92
2023-01-07T21:59:35.081Z,100450.67
2023-01-07T22:02:03.283Z,100454.95
2023-01-07T22:04:31.533Z,100458.08
2023-01-07T22:06:59.643Z,100458.33
2023-01-07T22:09:27.670Z,100451.40
2023-01-07T22:11:55.814Z,100454.21
2023-01-07T22:14:24.534Z,100457.88
2023-01-07T22:16:52.661Z,100458.90
2023-01-07T22:19:20.766Z,100456.58
2023-01-07T22:21:48.819Z,100458.60
2023-01-07T22:24:16.923Z,100459.23
2023-01-07T22:26:44.900Z,100460.63
2023-01-07T22:29:14.825Z,100457.63
2023-01-07T22:31:43.088Z,100455.36
2023-01-07T22:34:11.217Z,100452.05
2023-01-07T22:36:55.958Z,100452.27
2023-01-07T22:39:32.523Z,100445.14
2023-01-07T22:42:06.753Z,100437.66
2023-01-07T22:44:40.697Z,100433.60
2023-01-07T22:47:13.406Z,100432.55
2023-01-07T22:49:45.146Z,100432.23
2023-01-07T22:52:22.650Z,100430.22
2023-01-07T22:54:50.643Z,100430.38
2023-01-07T22:57:18.810Z,100430.28
2023-01-07T22:59:47.283Z,100429.50
2023-01-07T23:02:15.546Z,100429.27
2023-01-07T23:04:54.171Z,100428.13
2023-01-07T23:07:22.240Z,100427.02
2023-01-07T23:09:51.640Z,100423.09
2023-01-07T23:12:20.011Z,100420.80
2023-01-07T23:14:48.216Z,100418.52
2023-01-07T23:17:16.318Z,100416.75
2023-01-07T23:19:44.459Z,100414.91
2023-01-07T23:22:12.819Z,100413.96
2023-01-07T23:24:40.999Z,100410.06
2023-01-07T23:27:09.224Z,100408.59
2023-01-07T23:29:38.967Z,100404.71
2023-01-07T23:32:12.552Z,100403.70
2023-01-07T23:34:43.021Z,100406.35
2023-01-07T23:37:11.280Z,100403.38
2023-01-07T23:39:39.418Z,100405.17
2023-01-07T23:42:07.930Z,100403.40
2023-01-07T23:44:36.112Z,100405.32
2023-01-07T23:47:04.755Z,100407.29
2023-01-07T23:49:32.968Z,100408.83
2023-01-07T23:52:01.137Z,100406.23
2023-01-07T23:54:30.554Z,100406.20
2023-01-07T23:56:58.667Z,100400.80
2023-01-07T23:59:26.966Z,100404.04
